createdAt,value
2022-08-20T00:02:24.753Z,25.67
2022-08-20T00:07:25.996Z,24.85
2022-08-20T00:12:27.283Z,24.83
2022-08-20T00:17:35.841Z,25.93
2022-08-20T00:22:37.497Z,26.52
2022-08-20T00:27:38.609Z,26.04
2022-08-20T00:33:01.268Z,25.62
2022-08-20T00:38:03.112Z,26.38
2022-08-20T00:43:23.164Z,26.02
2022-08-20T00:48:28.123Z,26.61
2022-08-20T00:53:30.145Z,25.88
2022-08-20T00:58:32.135Z,25.30
2022-08-20T01:03:33.834Z,26.12
2022-08-20T01:08:34.923Z,26.59
2022-08-20T01:13:37.977Z,26.88
2022-08-20T01:18:39.684Z,27.03
2022-08-20T01:24:05.794Z,26.11
2022-08-20T01:29:12.652Z,25.47
2022-08-20T01:34:18.966Z,26.28
2022-08-20T01:39:24.412Z,26.67
2022-08-20T01:44:26.115Z,26.85
2022-08-20T01:49:34.492Z,26.86
2022-08-20T01:54:35.687Z,25.65
2022-08-20T01:59:37.413Z,25.39
2022-08-20T02:04:40.189Z,25.93
2022-08-20T02:09:42.001Z,25.94
2022-08-20T02:14:46.038Z,26.09
2022-08-20T02:19:52.575Z,25.97
2022-08-20T02:24:53.764Z,25.98
2022-08-20T02:29:54.847Z,26.08
2022-08-20T02:34:56.209Z,26.18
2022-08-20T02:39:58.045Z,26.25
2022-08-20T02:44:59.406Z,26.34
2022-08-20T02:50:00.558Z,26.42
2022-08-20T02:55:01.731Z,26.45
2022-08-20T03:00:06.721Z,26.49
2022-08-20T03:05:08.898Z,26.60
2022-08-20T03:10:11.783Z,26.70
2022-08-20T03:15:17.833Z,26.70
2022-08-20T03:20:23.768Z,26.67
2022-08-20T03:25:25.691Z,26.82
2022-08-20T03:30:28.128Z,26.92
2022-08-20T03:35:31.222Z,26.88
2022-08-20T03:40:33.787Z,26.89
2022-08-20T03:45:37.371Z,26.98
2022-08-20T03:50:41.640Z,27.14
2022-08-20T03:55:54.497Z,27.26
2022-08-20T04:00:57.131Z,27.30
2022-08-20T04:05:58.813Z,27.29
2022-08-20T04:10:59.995Z,27.16
2022-08-20T04:16:07.970Z,27.07
2022-08-20T04:21:13.012Z,26.98
2022-08-20T04:26:15.462Z,27.05
2022-08-20T04:31:18.171Z,27.18
2022-08-20T04:36:21.365Z,27.27
2022-08-20T04:41:24.182Z,27.22
2022-08-20T04:46:27.812Z,27.10
2022-08-20T04:51:29.419Z,27.02
2022-08-20T04:56:38.294Z,27.09
2022-08-20T05:01:39.482Z,27.23
2022-08-20T05:06:40.896Z,27.35
2022-08-20T05:11:42.068Z,27.42
2022-08-20T05:16:43.163Z,27.42
2022-08-20T05:21:44.295Z,27.34
2022-08-20T05:26:45.888Z,27.21
2022-08-20T05:31:47.053Z,27.19
2022-08-20T05:36:50.496Z,27.29
2022-08-20T05:41:52.059Z,27.52
2022-08-20T05:46:53.210Z,27.82
2022-08-20T05:51:54.568Z,27.95
2022-08-20T05:56:56.672Z,27.98
2022-08-20T06:01:57.748Z,27.45
2022-08-20T06:07:05.559Z,26.09
2022-08-20T06:12:08.461Z,26.05
2022-08-20T06:17:13.313Z,27.11
2022-08-20T06:22:18.779Z,27.43
2022-08-20T06:27:27.279Z,27.46
2022-08-20T06:32:31.665Z,27.22
2022-08-20T06:37:36.028Z,26.26
2022-08-20T06:42:47.871Z,27.04
2022-08-20T06:47:52.015Z,27.75
2022-08-20T06:52:53.486Z,27.79
2022-08-20T06:58:04.613Z,27.23
2022-08-20T07:03:06.208Z,28.47
2022-08-20T07:08:13.780Z,29.30
2022-08-20T07:13:15.558Z,29.02
2022-08-20T07:18:17.220Z,28.53
2022-08-20T07:23:30.872Z,28.04
2022-08-20T07:28:34.462Z,27.41
2022-08-20T07:33:38.642Z,26.89
2022-08-20T07:38:40.913Z,26.57
2022-08-20T07:43:46.365Z,26.45
2022-08-20T07:48:49.307Z,26.95
2022-08-20T07:53:51.980Z,28.58
2022-08-20T07:58:55.658Z,28.30
2022-08-20T08:03:58.940Z,27.79
2022-08-20T08:09:05.005Z,27.28
2022-08-20T08:14:08.747Z,26.92
2022-08-20T08:19:11.137Z,26.79
2022-08-20T08:24:19.368Z,26.79
2022-08-20T08:29:22.268Z,26.75
2022-08-20T08:34:24.617Z,26.92
2022-08-20T08:39:25.730Z,27.00
2022-08-20T08:44:40.715Z,27.30
2022-08-20T08:49:45.491Z,27.82
2022-08-20T08:54:49.509Z,28.44
2022-08-20T09:00:04.867Z,29.01
2022-08-20T09:05:17.049Z,29.31
2022-08-20T09:10:23.241Z,29.40
2022-08-20T09:15:25.102Z,29.66
2022-08-20T09:20:27.262Z,29.83
2022-08-20T09:25:28.663Z,29.93
2022-08-20T09:30:29.785Z,29.83
2022-08-20T09:35:31.049Z,29.77
2022-08-20T09:40:32.798Z,29.71
2022-08-20T09:45:34.902Z,29.77
2022-08-20T09:50:38.904Z,29.74
2022-08-20T09:55:43.285Z,29.47
2022-08-20T10:00:44.715Z,29.09
2022-08-20T10:05:46.223Z,28.91
2022-08-20T10:10:47.319Z,28.75
2022-08-20T10:15:48.426Z,28.59
2022-08-20T10:20:49.615Z,28.63
2022-08-20T10:25:50.849Z,28.74
2022-08-20T10:30:51.923Z,28.72
2022-08-20T10:35:55.683Z,28.60
2022-08-20T10:41:01.141Z,28.57
2022-08-20T10:46:02.525Z,28.51
2022-08-20T10:51:04.239Z,28.54
2022-08-20T10:56:06.710Z,28.65
2022-08-20T11:01:08.384Z,28.80
2022-08-20T11:06:09.859Z,29.02
2022-08-20T11:11:11.140Z,29.15
2022-08-20T11:16:13.428Z,29.22
2022-08-20T11:21:14.943Z,29.38
2022-08-20T11:26:21.432Z,29.64
2022-08-20T11:31:22.505Z,30.05
2022-08-20T11:36:25.720Z,30.53
2022-08-20T11:41:26.799Z,30.62
2022-08-20T11:46:28.783Z,30.46
2022-08-20T11:51:30.259Z,30.32
2022-08-20T11:56:38.893Z,30.32
2022-08-20T12:02:03.058Z,30.33
2022-08-20T12:07:10.136Z,30.42
2022-08-20T12:12:11.601Z,30.45
2022-08-20T12:17:20.484Z,30.53
2022-08-20T12:22:25.343Z,30.84
2022-08-20T12:27:29.934Z,31.26
2022-08-20T12:32:31.613Z,31.45
2022-08-20T12:37:33.429Z,31.56
2022-08-20T12:42:34.626Z,31.59
2022-08-20T12:47:39.719Z,31.68
2022-08-20T12:52:41.903Z,31.64
2022-08-20T12:57:47.563Z,31.52
2022-08-20T13:02:50.115Z,31.48
2022-08-20T13:07:52.296Z,31.43
2022-08-20T13:12:54.181Z,31.44
2022-08-20T13:18:00.164Z,31.50
2022-08-20T13:23:03.500Z,31.65
2022-08-20T13:28:05.278Z,31.74
2022-08-20T13:33:06.407Z,31.76
2022-08-20T13:38:07.783Z,31.69
2022-08-20T13:43:11.885Z,31.77
2022-08-20T13:48:15.289Z,31.89
2022-08-20T13:53:16.872Z,31.94
2022-08-20T13:58:18.831Z,32.05
2022-08-20T14:03:25.295Z,32.23
2022-08-20T14:08:27.231Z,32.27
2022-08-20T14:13:28.441Z,32.24
2022-08-20T14:18:30.097Z,32.14
2022-08-20T14:23:31.177Z,31.94
2022-08-20T14:28:38.470Z,31.60
2022-08-20T14:33:44.013Z,30.78
2022-08-20T14:38:45.850Z,30.07
2022-08-20T14:43:47.016Z,29.65
2022-08-20T14:48:51.826Z,29.43
2022-08-20T14:53:54.606Z,29.27
2022-08-20T14:58:55.738Z,29.21
2022-08-20T15:03:56.960Z,29.17
2022-08-20T15:08:58.625Z,28.99
2022-08-20T15:13:59.720Z,28.83
2022-08-20T15:19:00.847Z,28.70
2022-08-20T15:24:02.563Z,28.59
2022-08-20T15:29:03.800Z,28.48
2022-08-20T15:34:04.893Z,28.40
2022-08-20T15:39:05.997Z,28.37
2022-08-20T15:44:07.213Z,28.32
2022-08-20T15:49:11.620Z,28.15
2022-08-20T15:54:23.711Z,27.91
2022-08-20T16:00:08.569Z,27.78
2022-08-20T16:05:23.072Z,27.63
2022-08-20T16:10:43.116Z,27.34
2022-08-20T16:15:47.543Z,27.51
2022-08-20T16:20:53.070Z,28.51
2022-08-20T16:26:31.903Z,28.97
2022-08-20T16:31:41.140Z,28.95
2022-08-20T16:37:03.470Z,29.03
2022-08-20T16:42:09.751Z,29.20
2022-08-20T16:47:22.016Z,29.43
2022-08-20T16:52:23.743Z,29.76
2022-08-20T16:57:28.332Z,29.40
2022-08-20T17:02:29.775Z,28.09
2022-08-20T17:07:46.030Z,27.77
2022-08-20T17:13:14.744Z,28.70
2022-08-20T17:18:25.685Z,28.92
2022-08-20T17:23:27.638Z,28.98
2022-08-20T17:28:33.249Z,29.05
2022-08-20T17:33:38.587Z,29.07
2022-08-20T17:38:46.578Z,29.13
2022-08-20T17:43:57.167Z,29.15
2022-08-20T17:49:04.757Z,29.13
2022-08-20T17:54:27.152Z,29.23
2022-08-20T18:00:00.184Z,29.01
2022-08-20T18:04:56.111Z,28.97
2022-08-20T18:10:03.712Z,29.01
2022-08-20T18:15:25.160Z,28.77
2022-08-20T18:20:48.026Z,28.67
2022-08-20T18:25:56.088Z,28.79
2022-08-20T18:30:59.969Z,28.86
2022-08-20T18:36:19.638Z,28.78
2022-08-20T18:41:42.792Z,28.62
2022-08-20T18:47:05.147Z,28.49
2022-08-20T18:52:27.114Z,28.42
2022-08-20T18:57:41.489Z,28.32
2022-08-20T19:03:02.033Z,28.01
2022-08-20T19:08:05.613Z,28.15
2022-08-20T19:13:16.329Z,28.18
2022-08-20T19:18:29.731Z,27.87
2022-08-20T19:23:39.433Z,26.85
2022-08-20T19:28:46.652Z,25.14
2022-08-20T19:33:48.194Z,24.64
2022-08-20T19:38:57.546Z,24.73
2022-08-20T19:44:00.440Z,24.73
2022-08-20T19:49:17.359Z,24.51
2022-08-20T19:54:24.671Z,24.50
2022-08-20T19:59:25.851Z,24.32
2022-08-20T20:04:29.832Z,24.24
2022-08-20T20:09:31.380Z,24.54
2022-08-20T20:14:35.745Z,24.87
2022-08-20T20:19:58.615Z,25.07
2022-08-20T20:25:16.804Z,25.02
2022-08-20T20:30:28.470Z,24.83
2022-08-20T20:35:34.678Z,24.74
2022-08-20T20:40:50.445Z,24.74
2022-08-20T20:46:27.931Z,24.60
2022-08-20T20:51:33.045Z,24.23
2022-08-20T20:56:36.998Z,23.84
2022-08-20T21:01:49.297Z,23.73
2022-08-20T21:06:53.944Z,23.76
2022-08-20T21:11:55.083Z,23.88
2022-08-20T21:16:59.711Z,23.97
2022-08-20T21:22:00.844Z,23.86
2022-08-20T21:27:03.166Z,23.49
2022-08-20T21:32:04.798Z,23.34
2022-08-20T21:37:05.894Z,23.50
2022-08-20T21:42:29.447Z,23.61
2022-08-20T21:47:30.927Z,23.80
2022-08-20T21:52:32.016Z,23.87
2022-08-20T21:57:37.125Z,23.96
2022-08-20T22:02:38.255Z,23.94
2022-08-20T22:07:41.477Z,23.98
2022-08-20T22:12:42.584Z,24.12
2022-08-20T22:17:43.694Z,24.20
2022-08-20T22:22:46.022Z,24.13
2022-08-20T22:27:47.319Z,24.13
2022-08-20T22:32:52.142Z,24.15
2022-08-20T22:37:53.727Z,24.27
2022-08-20T22:42:54.981Z,24.32
2022-08-20T22:47:56.275Z,24.32
2022-08-20T22:52:58.658Z,24.14
2022-08-20T22:58:00.124Z,24.16
2022-08-20T23:03:03.507Z,24.38
2022-08-20T23:08:06.845Z,24.51
2022-08-20T23:13:08.053Z,24.73
2022-08-20T23:18:13.645Z,24.95
2022-08-20T23:23:14.932Z,25.05
2022-08-20T23:28:19.239Z,25.02
2022-08-20T23:33:20.443Z,25.02
2022-08-20T23:38:21.630Z,25.04
2022-08-20T23:43:22.888Z,25.10
2022-08-20T23:48:24.280Z,25.21
2022-08-20T23:53:25.624Z,25.32
2022-08-20T23:58:26.965Z,25.43
